Time;durP1;ratioP1;P1;durP2;ratioP2;P2;SDS_P1;SDS_P2;PMS_P1;PMS_P2;Temp;Humidity;BMP_temperature;BMP_pressure;BME280_temperature;BME280_humidity;BME280_pressure;Samples;Min_cycle;Max_cycle;Signal;HPM_P1;HPM_P2
2023/11/23 00:00:55;;;;;;;3.33;0.93;;;;;;;12.76;100.00;98594.28;5056634;28;20182;-93
2023/11/23 00:03:21;;;;;;;3.88;1.35;;;;;;;12.71;100.00;98564.25;5056196;28;20060;-92
2023/11/23 00:05:54;;;;;;;5.03;1.20;;;;;;;12.58;100.00;98541.63;5055494;28;20056;-93
2023/11/23 00:08:22;;;;;;;6.00;1.52;;;;;;;13.16;100.00;98688.78;5055962;28;20056;-92
2023/11/23 00:10:48;;;;;;;2.72;1.05;;;;;;;12.48;100.00;98530.44;5074349;28;20048;-91
2023/11/23 00:13:16;;;;;;;8.52;1.85;;;;;;;12.65;100.00;98586.69;5056781;28;20421;-93
2023/11/23 00:15:42;;;;;;;6.72;1.58;;;;;;;12.17;100.00;98528.09;5056828;28;20071;-92
2023/11/23 00:18:11;;;;;;;5.95;1.05;;;;;;;13.54;100.00;98702.50;5058036;28;20044;-94
2023/11/23 00:20:39;;;;;;;3.40;1.23;;;;;;;12.73;100.00;98581.06;5058667;28;20068;-94
2023/11/23 00:23:09;;;;;;;3.13;1.02;;;;;;;12.45;100.00;98549.25;5057063;28;20071;-92
2023/11/23 00:25:37;;;;;;;4.30;1.02;;;;;;;13.00;100.00;98664.50;5059284;28;20397;-92
2023/11/23 00:28:03;;;;;;;2.70;1.10;;;;;;;13.35;100.00;98718.38;5057180;28;20048;-93
2023/11/23 00:30:32;;;;;;;2.80;1.13;;;;;;;12.66;100.00;98583.06;5058805;28;20048;-94
2023/11/23 00:32:58;;;;;;;6.00;1.40;;;;;;;12.74;100.00;98653.03;5059490;28;20123;-94
2023/11/23 00:36:02;;;;;;;3.55;1.15;;;;;;;12.68;100.00;98601.69;5060659;28;20063;-93
2023/11/23 00:38:34;;;;;;;4.18;1.45;;;;;;;12.13;100.00;98575.31;5001966;28;20045;-93
2023/11/23 00:41:06;;;;;;;3.85;1.60;;;;;;;13.35;100.00;98758.44;5000270;28;20049;-94
2023/11/23 00:43:34;;;;;;;5.13;1.77;;;;;;;12.76;100.00;98654.78;5002148;28;20053;-91
2023/11/23 00:46:02;;;;;;;6.03;1.30;;;;;;;13.39;100.00;98762.72;5002907;28;20042;-93
2023/11/23 00:48:31;;;;;;;6.50;1.40;;;;;;;13.15;100.00;98733.31;4995427;28;20046;-91
2023/11/23 00:51:01;;;;;;;4.82;1.33;;;;;;;12.92;100.00;98656.81;5002824;28;20113;-94
2023/11/23 00:53:32;;;;;;;2.65;1.30;;;;;;;12.84;100.00;98690.91;4991607;28;20054;-92
2023/11/23 00:56:01;;;;;;;5.60;2.00;;;;;;;12.52;100.00;98639.63;4995773;28;20068;-93
2023/11/23 00:58:26;;;;;;;9.80;1.85;;;;;;;13.02;100.00;98707.16;4997925;28;20050;-94
2023/11/23 01:00:55;;;;;;;3.22;1.00;;;;;;;13.29;100.00;98743.53;5005503;28;20399;-93
2023/11/23 01:03:24;;;;;;;3.28;1.40;;;;;;;12.95;100.00;98750.09;5002065;28;20042;-92
2023/11/23 01:05:50;;;;;;;4.95;1.52;;;;;;;13.34;100.00;98756.69;4999859;28;20137;-93
2023/11/23 01:08:16;;;;;;;5.68;1.20;;;;;;;12.41;100.00;98639.16;5003221;28;20065;-90
2023/11/23 01:10:42;;;;;;;3.00;1.50;;;;;;;13.47;100.00;98776.66;5005266;28;20145;-92
2023/11/23 01:13:12;;;;;;;3.70;2.10;;;;;;;12.50;100.00;98638.81;5005557;28;20379;-90
2023/11/23 01:15:38;;;;;;;4.57;1.10;;;;;;;12.24;100.00;98618.44;5052413;28;20420;-91
2023/11/23 01:18:04;;;;;;;4.43;1.25;;;;;;;13.09;100.00;98736.22;5057777;28;20418;-93
2023/11/23 01:20:32;;;;;;;2.22;1.13;;;;;;;12.24;100.00;98634.44;5056655;28;20043;-91
2023/11/23 01:22:58;;;;;;;4.43;1.65;;;;;;;13.17;100.00;98781.34;5051551;28;20128;-93
2023/11/23 01:25:28;;;;;;;10.30;1.38;;;;;;;12.73;100.00;98707.31;5053234;28;20060;-91
2023/11/23 01:27:55;;;;;;;4.95;1.70;;;;;;;12.22;100.00;98662.06;5058843;28;20067;-91
2023/11/23 01:30:22;;;;;;;5.03;1.60;;;;;;;12.59;100.00;98748.78;5056338;28;20086;-92
2023/11/23 01:32:48;;;;;;;5.53;1.83;;;;;;;12.82;100.00;98772.84;5057817;28;20090;-91
2023/11/23 01:35:14;;;;;;;6.75;1.52;;;;;;;12.41;100.00;98673.81;5056859;28;20036;-91
2023/11/23 01:37:42;;;;;;;3.85;1.20;;;;;;;12.10;100.00;98621.59;5046102;28;20064;-90
2023/11/23 01:40:11;;;;;;;4.90;1.40;;;;;;;12.23;100.00;98661.13;5056114;28;20205;-91
2023/11/23 01:42:37;;;;;;;2.20;1.33;;;;;;;12.24;100.00;98604.22;5059682;28;20041;-93
2023/11/23 01:45:07;;;;;;;3.95;1.65;;;;;;;12.98;100.00;98775.81;5048878;28;20114;-92
2023/11/23 01:47:37;;;;;;;4.10;1.60;;;;;;;12.85;100.00;98711.31;5062322;28;20116;-91
2023/11/23 01:50:03;;;;;;;;;;;;;;;13.15;100.00;98772.50;5043469;28;20057;-91
2023/11/23 01:52:29;;;;;;;4.43;1.60;;;;;;;12.35;100.00;98604.72;5027737;28;20016;-91
2023/11/23 01:54:58;;;;;;;3.45;1.40;;;;;;;13.02;100.00;98749.88;5036767;28;20041;-90
2023/11/23 01:57:25;;;;;;;7.30;1.60;;;;;;;12.81;100.00;98740.84;5037095;28;20044;-91
2023/11/23 01:59:54;;;;;;;5.82;1.83;;;;;;;12.73;100.00;98728.69;5036634;28;20490;-93
2023/11/23 02:02:20;;;;;;;4.78;1.80;;;;;;;12.56;100.00;98695.53;5035534;28;20047;-90
2023/11/23 02:04:51;;;;;;;10.40;1.50;;;;;;;12.74;100.00;98718.88;5036529;28;20041;-91
2023/11/23 02:07:19;;;;;;;3.45;1.15;;;;;;;12.39;100.00;98619.66;5034518;28;20040;-93
2023/11/23 02:09:45;;;;;;;4.55;1.48;;;;;;;12.09;100.00;98622.50;5035723;28;20032;-92
2023/11/23 02:12:11;;;;;;;4.43;1.40;;;;;;;12.54;100.00;98668.91;5037399;28;20063;-91
2023/11/23 02:14:37;;;;;;;3.42;1.33;;;;;;;13.12;100.00;98712.09;5036445;28;20049;-92
2023/11/23 02:17:15;;;;;;;6.05;1.30;;;;;;;12.74;100.00;98702.84;5035821;28;20090;-92
2023/11/23 02:19:41;;;;;;;2.53;1.30;;;;;;;12.58;100.00;98665.22;5035952;28;20037;-92
2023/11/23 02:22:08;;;;;;;4.47;1.70;;;;;;;12.89;100.00;98712.97;5037147;28;20044;-93
2023/11/23 02:24:36;;;;;;;5.35;1.73;;;;;;;12.04;100.00;98572.97;5035870;28;20040;-91
2023/11/23 02:27:02;;;;;;;2.60;1.10;;;;;;;12.68;100.00;98644.38;5035765;28;20043;-92
2023/11/23 02:29:30;;;;;;;4.55;1.35;;;;;;;12.49;100.00;98591.75;5035624;28;20041;-93
2023/11/23 02:31:57;;;;;;;6.90;1.42;;;;;;;12.65;100.00;98649.84;5033538;28;20040;-92
2023/11/23 02:34:23;;;;;;;6.70;1.48;;;;;;;12.42;100.00;98637.34;5035147;28;20052;-92
2023/11/23 02:36:52;;;;;;;6.50;2.15;;;;;;;12.56;100.00;98658.19;5035788;28;20041;-92
2023/11/23 02:39:24;;;;;;;3.33;1.30;;;;;;;12.74;100.00;98666.38;5035093;28;20447;-92
2023/11/23 02:41:51;;;;;;;5.15;1.40;;;;;;;13.06;100.00;98736.34;5034232;28;20033;-94
2023/11/23 02:44:23;;;;;;;3.95;1.33;;;;;;;13.23;100.00;98738.38;5035977;28;20040;-91
2023/11/23 02:46:49;;;;;;;5.05;1.52;;;;;;;13.06;100.00;98724.81;5032947;28;20052;-93
2023/11/23 02:49:18;;;;;;;5.18;1.40;;;;;;;13.07;100.00;98740.75;5035755;28;20037;-93
2023/11/23 02:51:45;;;;;;;3.35;1.48;;;;;;;12.70;100.00;98669.22;5052458;28;20044;-93
2023/11/23 02:54:13;;;;;;;4.88;1.20;;;;;;;12.86;100.00;98710.41;5038570;28;20138;-94
2023/11/23 02:56:39;;;;;;;5.20;1.48;;;;;;;13.00;100.00;98706.34;5052421;28;20044;-91
2023/11/23 02:59:09;;;;;;;3.95;1.30;;;;;;;12.42;100.00;98605.34;5056183;28;20048;-93
2023/11/23 03:01:34;;;;;;;8.93;1.45;;;;;;;12.93;100.00;98708.38;5055097;28;20040;-90
2023/11/23 03:04:01;;;;;;;2.65;1.10;;;;;;;12.79;100.00;98674.19;5053116;28;20037;-93
2023/11/23 03:06:27;;;;;;;7.18;1.55;;;;;;;13.37;100.00;98761.06;5054585;28;20044;-90
2023/11/23 03:08:53;;;;;;;3.42;1.63;;;;;;;12.51;100.00;98656.56;5055286;28;20041;-93
2023/11/23 03:11:20;;;;;;;3.28;1.50;;;;;;;12.98;100.00;98737.56;5055808;28;20132;-94
2023/11/23 03:13:48;;;;;;;4.97;1.50;;;;;;;12.78;100.00;98715.16;5054470;28;20043;-90
2023/11/23 03:16:15;;;;;;;3.97;1.55;;;;;;;12.57;100.00;98671.44;5050314;28;20055;-92
2023/11/23 03:18:44;;;;;;;4.63;1.50;;;;;;;12.84;100.00;98704.25;5056119;28;20033;-92
2023/11/23 03:21:13;;;;;;;5.63;1.63;;;;;;;12.92;100.00;98699.50;5055405;28;20485;-91
2023/11/23 03:23:41;;;;;;;4.15;1.52;;;;;;;12.88;100.00;98721.00;5055567;28;20444;-91
2023/11/23 03:26:07;;;;;;;7.03;1.63;;;;;;;12.10;100.00;98592.28;5065329;28;20033;-92
2023/11/23 03:28:35;;;;;;;7.95;2.33;;;;;;;12.49;100.00;98660.19;5052739;28;20298;-92
2023/11/23 03:31:01;;;;;;;8.10;1.63;;;;;;;12.37;100.00;98608.19;5052989;28;20043;-94
2023/11/23 03:33:29;;;;;;;4.15;1.35;;;;;;;12.65;100.00;98684.53;5055047;28;20032;-92
2023/11/23 03:35:55;;;;;;;2.75;1.60;;;;;;;12.61;100.00;98657.09;5045435;28;20068;-91
2023/11/23 03:38:22;;;;;;;5.10;2.03;;;;;;;12.91;100.00;98719.09;5054320;28;20127;-92
2023/11/23 03:40:51;;;;;;;6.00;1.85;;;;;;;12.70;100.00;98735.91;5056200;28;20048;-93
2023/11/23 03:43:17;;;;;;;5.47;2.17;;;;;;;12.33;100.00;98644.75;5052871;28;20482;-91
2023/11/23 03:45:43;;;;;;;3.83;1.48;;;;;;;12.42;100.00;98632.88;5053908;28;20051;-92
2023/11/23 03:48:09;;;;;;;9.40;1.85;;;;;;;12.53;100.00;98673.38;5056270;28;20044;-93
2023/11/23 03:50:36;;;;;;;6.53;1.73;;;;;;;12.74;100.00;98748.22;5052117;28;20479;-93
2023/11/23 03:53:04;;;;;;;5.68;2.05;;;;;;;12.93;100.00;98762.63;5044039;28;20037;-92
2023/11/23 03:55:30;;;;;;;6.50;1.70;;;;;;;12.06;100.00;98637.75;5037640;28;20508;-93
2023/11/23 03:57:59;;;;;;;4.78;1.35;;;;;;;12.59;100.00;98749.63;5039349;28;20068;-92
2023/11/23 04:00:27;;;;;;;6.57;1.80;;;;;;;12.32;100.00;98684.81;5035501;28;20032;-93
2023/11/23 04:02:56;;;;;;;6.65;1.58;;;;;;;12.08;100.00;98614.59;5039523;28;20047;-94
2023/11/23 04:05:25;;;;;;;3.25;1.30;;;;;;;12.85;100.00;98731.81;5038164;28;20040;-92
2023/11/23 04:07:52;;;;;;;5.57;1.50;;;;;;;13.07;100.00;98748.75;5038611;28;20048;-91
2023/11/23 04:10:18;;;;;;;2.47;1.20;;;;;;;12.35;100.00;98630.50;5036780;28;20041;-93
2023/11/23 04:12:47;;;;;;;4.57;1.45;;;;;;;12.50;100.00;98651.28;5041174;28;20108;-93
2023/11/23 04:15:13;;;;;;;7.22;1.75;;;;;;;12.70;100.00;98699.41;5040014;28;20051;-93
2023/11/23 04:17:39;;;;;;;3.70;1.20;;;;;;;13.00;100.00;98759.75;5041266;28;20128;-92
2023/11/23 04:20:09;;;;;;;2.38;1.40;;;;;;;12.91;100.00;98724.44;5039374;28;20550;-95
2023/11/23 04:22:36;;;;;;;6.03;2.00;;;;;;;12.15;100.00;98656.09;5041753;28;20431;-93
2023/11/23 04:25:04;;;;;;;4.00;1.45;;;;;;;12.45;100.00;98677.25;5040662;28;20486;-93
2023/11/23 04:27:36;;;;;;;6.03;3.03;;;;;;;11.89;100.00;98635.69;5040073;28;20534;-93
2023/11/23 04:30:05;;;;;;;5.75;2.10;;;;;;;11.62;100.00;98634.78;5036082;28;20136;-90
2023/11/23 04:32:32;;;;;;;3.88;1.48;;;;;;;12.62;100.00;98756.66;5039414;28;20044;-92
2023/11/23 04:34:58;;;;;;;3.92;1.15;;;;;;;11.99;100.00;98650.44;5039110;28;20033;-92
2023/11/23 04:37:27;;;;;;;4.93;1.70;;;;;;;12.24;100.00;98678.88;5039429;28;20399;-92
2023/11/23 04:39:53;;;;;;;2.78;1.17;;;;;;;12.02;100.00;98646.78;5036096;28;20095;-93
2023/11/23 04:42:21;;;;;;;3.72;1.48;;;;;;;12.36;100.00;98707.78;5041398;28;20033;-93
2023/11/23 04:44:47;;;;;;;4.85;1.45;;;;;;;12.93;100.00;98815.16;5038525;28;20110;-92
2023/11/23 04:47:13;;;;;;;2.95;1.35;;;;;;;12.32;100.00;98731.00;5033537;28;20065;-93
2023/11/23 04:49:41;;;;;;;4.70;1.30;;;;;;;12.17;100.00;98701.34;5039940;28;20087;-93
2023/11/23 04:52:09;;;;;;;3.15;1.30;;;;;;;12.74;100.00;98817.59;5041539;28;20044;-92
2023/11/23 04:54:35;;;;;;;5.18;1.55;;;;;;;11.82;100.00;98669.63;5041630;28;20037;-93
2023/11/23 04:57:02;;;;;;;3.03;1.08;;;;;;;12.54;100.00;98771.13;5045655;28;20048;-94
2023/11/23 04:59:29;;;;;;;3.28;1.25;;;;;;;11.97;100.00;98668.28;5040948;28;20073;-95
2023/11/23 05:01:58;;;;;;;4.38;1.20;;;;;;;12.73;100.00;98838.06;5041054;28;20057;-93
2023/11/23 05:04:26;;;;;;;7.18;1.50;;;;;;;12.51;100.00;98781.03;5043323;28;20041;-94
2023/11/23 05:06:55;;;;;;;5.05;1.40;;;;;;;11.81;100.00;98659.00;5040909;28;20407;-93
2023/11/23 05:09:21;;;;;;;5.97;1.45;;;;;;;12.23;100.00;98752.66;5043139;28;20127;-93
2023/11/23 05:11:50;;;;;;;6.45;1.48;;;;;;;12.36;100.00;98795.78;5045220;28;20132;-94
2023/11/23 05:14:16;;;;;;;6.75;1.30;;;;;;;12.29;100.00;98804.91;5040542;28;20063;-92
2023/11/23 05:16:44;;;;;;;3.88;1.27;;;;;;;12.48;100.00;98813.16;5041490;28;20037;-94
2023/11/23 05:19:10;;;;;;;2.65;1.60;;;;;;;11.60;100.00;98704.09;5050506;28;20051;-92
2023/11/23 05:21:36;;;;;;;5.10;1.38;;;;;;;12.25;100.00;98789.91;5041108;28;20041;-93
2023/11/23 05:24:04;;;;;;;7.75;1.73;;;;;;;12.64;100.00;98861.50;5049076;28;20098;-92
2023/11/23 05:26:36;;;;;;;4.00;1.80;;;;;;;11.72;100.00;98718.78;5044111;28;20040;-93
2023/11/23 05:29:02;;;;;;;4.85;1.98;;;;;;;12.23;100.00;98847.75;5038264;28;20555;-93
2023/11/23 05:31:28;;;;;;;3.72;1.40;;;;;;;12.09;100.00;98768.25;5035368;28;20038;-92
2023/11/23 05:33:55;;;;;;;4.45;1.30;;;;;;;12.08;100.00;98779.84;5042323;28;20045;-93
2023/11/23 05:36:24;;;;;;;7.32;2.17;;;;;;;12.05;100.00;98755.94;5044346;28;20102;-92
2023/11/23 05:38:50;;;;;;;3.83;1.58;;;;;;;11.56;100.00;98705.09;5042324;28;20071;-91
2023/11/23 05:41:16;;;;;;;9.80;1.70;;;;;;;11.90;100.00;98757.31;5040473;28;20077;-92
2023/11/23 05:43:42;;;;;;;7.93;1.38;;;;;;;11.91;100.00;98762.59;5042997;28;20034;-93
2023/11/23 05:46:08;;;;;;;2.70;1.05;;;;;;;12.63;100.00;98882.00;5037217;28;20065;-93
2023/11/23 05:48:34;;;;;;;3.75;1.30;;;;;;;11.97;100.00;98773.97;5037755;28;20195;-93
2023/11/23 05:51:02;;;;;;;6.53;1.42;;;;;;;11.86;100.00;98713.91;5038686;28;20095;-91
2023/11/23 05:53:28;;;;;;;5.78;1.63;;;;;;;11.54;100.00;98698.97;5036000;28;20033;-93
2023/11/23 05:55:56;;;;;;;2.88;1.45;;;;;;;12.47;100.00;98852.31;5037167;28;20475;-93
2023/11/23 05:58:22;;;;;;;5.22;1.65;;;;;;;12.19;100.00;98836.34;5037772;28;20044;-93
2023/11/23 06:00:51;;;;;;;3.58;1.40;;;;;;;12.42;100.00;98824.03;5028783;28;20048;-91
2023/11/23 06:03:23;;;;;;;3.97;1.52;;;;;;;12.60;100.00;98863.44;5037005;28;20029;-93
2023/11/23 06:05:49;;;;;;;3.33;1.80;;;;;;;11.65;100.00;98723.44;5037549;28;20538;-92
2023/11/23 06:08:18;;;;;;;6.55;2.70;;;;;;;11.85;100.00;98786.75;5035185;28;20041;-93
2023/11/23 06:10:44;;;;;;;6.38;1.63;;;;;;;11.65;100.00;98723.44;5038028;28;20211;-94
2023/11/23 06:13:12;;;;;;;6.35;1.23;;;;;;;11.53;100.00;98699.88;5045698;28;20057;-93
2023/11/23 06:15:41;;;;;;;4.47;1.80;;;;;;;11.81;100.00;98784.22;5037742;28;20041;-91
2023/11/23 06:18:10;;;;;;;4.38;1.35;;;;;;;12.44;100.00;98878.19;5040027;28;20049;-92
2023/11/23 06:20:38;;;;;;;4.25;1.27;;;;;;;11.58;100.00;98731.66;5042825;28;20091;-93
2023/11/23 06:23:05;;;;;;;6.53;1.85;;;;;;;11.53;100.00;98809.06;5039202;28;20076;-93
2023/11/23 06:26:22;;;;;;;5.03;1.52;;;;;;;12.11;100.00;98881.88;5037546;28;20041;-93
2023/11/23 06:28:50;;;;;;;6.95;1.30;;;;;;;11.31;100.00;98745.78;5039828;28;20045;-92
2023/11/23 06:31:21;;;;;;;5.65;1.77;;;;;;;11.40;100.00;98734.00;5043485;28;20145;-93
2023/11/23 06:33:47;;;;;;;6.05;1.85;;;;;;;11.38;100.00;98746.47;5041872;28;20041;-94
2023/11/23 06:36:16;;;;;;;9.48;2.47;;;;;;;11.64;100.00;98838.03;5043986;28;20045;-94
2023/11/23 06:38:44;;;;;;;3.30;1.33;;;;;;;11.57;100.00;98810.72;5041465;28;20107;-93
2023/11/23 06:41:22;;;;;;;7.75;2.20;;;;;;;11.41;100.00;98754.41;5042485;28;20044;-94
2023/11/23 06:43:57;;;;;;;4.95;1.70;;;;;;;11.43;100.00;98763.22;5032996;28;20041;-94
2023/11/23 06:46:23;;;;;;;3.95;1.33;;;;;;;11.71;100.00;98805.84;5040422;28;20056;-93
2023/11/23 06:48:58;;;;;;;3.47;2.00;;;;;;;12.15;100.00;98876.47;5039984;28;20045;-92
2023/11/23 06:51:27;;;;;;;7.72;1.65;;;;;;;12.10;100.00;98850.84;5054033;28;20057;-94
2023/11/23 06:53:56;;;;;;;4.97;1.40;;;;;;;12.50;100.00;98899.34;5061618;28;20489;-94
2023/11/23 06:56:24;;;;;;;4.60;1.52;;;;;;;12.56;100.00;98946.28;5059917;28;20041;-94
2023/11/23 06:58:51;;;;;;;4.13;1.30;;;;;;;11.62;100.00;98774.13;5060150;28;20056;-94
2023/11/23 07:01:31;;;;;;;4.43;2.00;;;;;;;12.18;100.00;98865.69;5061950;28;20448;-96
2023/11/23 07:03:59;;;;;;;5.78;1.85;;;;;;;11.85;100.00;98815.19;5059777;28;20037;-95
2023/11/23 07:06:26;;;;;;;3.47;1.60;;;;;;;12.78;100.00;98954.47;5061988;28;20071;-94
2023/11/23 07:08:57;;;;;;;4.78;1.40;;;;;;;11.72;100.00;98807.56;5060868;28;20052;-95
2023/11/23 07:11:27;;;;;;;4.88;1.52;;;;;;;12.05;100.00;98826.09;5062670;28;20098;-95
2023/11/23 07:13:58;;;;;;;6.03;2.70;;;;;;;11.96;100.00;98797.09;5061574;28;20040;-94
2023/11/23 07:16:25;;;;;;;5.65;1.70;;;;;;;12.12;100.00;98883.66;5060219;28;20051;-93
2023/11/23 07:18:51;;;;;;;4.43;2.40;;;;;;;11.91;100.00;98887.84;5058241;28;20041;-95
2023/11/23 07:21:17;;;;;;;2.45;1.45;;;;;;;11.84;100.00;98856.97;5059802;28;20056;-93
2023/11/23 07:23:48;;;;;;;4.55;1.73;;;;;;;11.79;100.00;98800.25;5062846;28;20486;-95
2023/11/23 07:26:17;;;;;;;6.32;1.73;;;;;;;12.38;100.00;98835.72;5063730;28;20041;-92
2023/11/23 07:28:45;;;;;;;6.45;2.40;;;;;;;12.31;100.00;98814.59;5044623;28;20115;-95
2023/11/23 07:31:13;;;;;;;4.55;2.10;;;;;;;12.06;100.00;98817.19;5045402;28;20099;-93
2023/11/23 07:33:46;;;;;;;5.68;1.20;;;;;;;12.28;100.00;98801.38;5064002;28;20048;-95
2023/11/23 07:36:21;;;;;;;5.43;1.75;;;;;;;12.36;100.00;98851.78;5064495;28;20040;-96
2023/11/23 07:38:55;;;;;;;2.97;1.42;;;;;;;12.25;100.00;98820.16;5066080;28;20051;-96
2023/11/23 07:41:29;;;;;;;4.82;1.58;;;;;;;12.23;100.00;98807.75;5065720;28;20495;-95
2023/11/23 07:43:57;;;;;;;5.63;2.03;;;;;;;12.66;100.00;98824.97;5065684;28;20098;-96
2023/11/23 07:46:24;;;;;;;5.28;1.52;;;;;;;13.39;100.00;98956.84;5065757;28;20457;-96
2023/11/23 07:48:52;;;;;;;3.38;1.77;;;;;;;12.76;100.00;98905.59;5065454;28;20054;-96
2023/11/23 07:51:19;;;;;;;6.60;1.50;;;;;;;13.18;100.00;98953.97;5066390;28;20053;-93
2023/11/23 07:53:47;;;;;;;8.70;1.67;;;;;;;12.74;100.00;98892.31;5064596;28;20040;-93
2023/11/23 07:56:20;;;;;;;5.03;1.52;;;;;;;12.65;100.00;98832.13;5065174;28;20048;-94
2023/11/23 07:58:52;;;;;;;4.50;1.50;;;;;;;12.27;100.00;98830.75;5063895;28;20047;-95
2023/11/23 08:01:20;;;;;;;5.43;1.67;;;;;;;12.18;100.00;98826.59;5063060;28;20048;-95
2023/11/23 08:03:49;;;;;;;4.28;1.95;;;;;;;12.37;100.00;98832.19;5063870;28;20132;-94
2023/11/23 08:06:15;;;;;;;5.57;1.40;;;;;;;12.78;100.00;98901.94;5064206;28;20083;-93
2023/11/23 08:08:44;;;;;;;3.38;1.70;;;;;;;12.52;100.00;98895.69;5063392;28;20040;-95
2023/11/23 08:11:13;;;;;;;4.18;1.60;;;;;;;13.09;100.00;98908.91;5066012;28;20045;-94
2023/11/23 08:13:39;;;;;;;2.60;1.60;;;;;;;12.84;100.00;98874.19;5063998;28;20043;-94
2023/11/23 08:16:06;;;;;;;5.93;1.50;;;;;;;13.46;100.00;98964.56;5063152;28;20143;-93
2023/11/23 08:18:36;;;;;;;5.22;2.10;;;;;;;13.14;100.00;98950.53;5062395;28;20089;-93
2023/11/23 08:21:04;;;;;;;2.72;1.63;;;;;;;13.06;100.00;98885.84;5063099;28;20037;-93
2023/11/23 08:23:30;;;;;;;4.20;1.52;;;;;;;12.99;100.00;98862.09;5060531;28;20039;-94
2023/11/23 08:25:56;;;;;;;4.65;1.38;;;;;;;13.66;100.00;98963.88;5064057;28;20048;-93
2023/11/23 08:28:22;;;;;;;5.78;1.98;;;;;;;12.99;100.00;98852.31;5063715;28;20131;-92
2023/11/23 08:30:48;;;;;;;5.03;1.45;;;;;;;13.32;100.00;98860.91;5063023;28;20135;-94
2023/11/23 08:33:15;;;;;;;3.88;1.45;;;;;;;13.02;100.00;98806.81;5063688;28;20033;-94
2023/11/23 08:35:44;;;;;;;4.50;2.17;;;;;;;14.14;100.00;98959.44;5061960;28;20448;-95
2023/11/23 08:38:13;;;;;;;5.60;1.25;;;;;;;12.81;100.00;98810.25;5062381;28;20047;-94
2023/11/23 08:40:39;;;;;;;5.38;1.70;;;;;;;12.91;100.00;98791.16;5062731;28;20044;-93
2023/11/23 08:43:08;;;;;;;3.45;1.48;;;;;;;13.49;100.00;98872.78;5064964;28;20112;-95
2023/11/23 08:45:36;;;;;;;4.45;1.40;;;;;;;13.64;100.00;98887.34;5076099;28;20052;-95
2023/11/23 08:48:06;;;;;;;4.25;1.52;;;;;;;13.05;100.00;98797.81;5061412;28;20071;-94
2023/11/23 08:50:35;;;;;;;6.40;1.75;;;;;;;13.13;100.00;98819.75;5059891;28;20044;-94
2023/11/23 08:53:02;;;;;;;4.05;1.45;;;;;;;14.05;100.00;98883.09;5060911;28;20044;-95
2023/11/23 08:55:28;;;;;;;2.72;1.75;;;;;;;13.17;100.00;98792.03;5059458;28;20044;-91
2023/11/23 08:57:54;;;;;;;3.88;1.48;;;;;;;12.88;100.00;98809.09;5059745;28;20090;-94
2023/11/23 09:00:23;;;;;;;4.05;1.88;;;;;;;14.02;100.00;98954.53;5059744;28;20551;-95
2023/11/23 09:02:50;;;;;;;5.18;2.28;;;;;;;13.34;98.82;98794.97;5077538;28;20044;-95
2023/11/23 09:05:19;;;;;;;8.18;1.80;;;;;;;13.91;100.00;98858.69;5060618;28;20040;-94
2023/11/23 09:07:45;;;;;;;3.38;1.65;;;;;;;13.54;100.00;98825.38;5060534;28;20052;-94
2023/11/23 09:10:12;;;;;;;3.70;2.08;;;;;;;13.29;99.20;98812.97;5061508;28;20040;-93
2023/11/23 09:12:41;;;;;;;4.63;1.67;;;;;;;13.78;99.33;98852.97;5061048;28;20036;-94
2023/11/23 09:15:12;;;;;;;5.00;1.52;;;;;;;13.17;100.00;98824.06;5060781;28;20068;-94
2023/11/23 09:17:42;;;;;;;7.82;1.60;;;;;;;13.40;100.00;98798.31;5062381;28;20098;-94
2023/11/23 09:20:09;;;;;;;3.20;1.65;;;;;;;13.87;98.52;98942.63;5061850;28;20052;-94
2023/11/23 09:22:39;;;;;;;3.72;1.23;;;;;;;14.00;100.00;98957.25;5061104;28;20135;-93
2023/11/23 09:25:06;;;;;;;;;;;;;;;14.12;100.00;98967.50;5061703;28;20059;-92
2023/11/23 09:27:36;;;;;;;4.25;2.13;;;;;;;13.15;100.00;98868.63;5061191;28;19931;-91
2023/11/23 09:30:07;;;;;;;2.25;1.15;;;;;;;13.35;100.00;98886.63;5056763;28;20056;-90
2023/11/23 09:32:33;;;;;;;3.55;1.80;;;;;;;13.73;100.00;98957.38;5059743;28;20139;-93
2023/11/23 09:34:59;;;;;;;4.85;2.08;;;;;;;13.10;100.00;98835.91;5059839;28;20045;-94
2023/11/23 09:37:26;;;;;;;7.38;2.05;;;;;;;13.79;100.00;98916.16;5055209;28;20139;-93
2023/11/23 09:39:54;;;;;;;7.68;1.98;;;;;;;14.02;100.00;98947.38;5059675;28;20066;-92
2023/11/23 09:42:21;;;;;;;3.70;1.85;;;;;;;13.95;100.00;98919.16;5059773;28;20136;-93
2023/11/23 09:44:57;;;;;;;4.45;1.70;;;;;;;14.25;99.96;98975.03;5060314;28;20036;-95
2023/11/23 09:47:31;;;;;;;3.97;1.70;;;;;;;13.97;100.00;98960.06;5058174;28;20450;-93
2023/11/23 09:50:01;;;;;;;3.40;1.42;;;;;;;12.78;100.00;98775.66;5055658;28;20053;-93
2023/11/23 09:52:27;;;;;;;;;;;;;;;14.03;100.00;98959.84;5037402;28;20379;-92
2023/11/23 09:54:56;;;;;;;7.03;1.52;;;;;;;13.68;100.00;98835.53;5038884;28;19959;-92
2023/11/23 09:57:23;;;;;;;5.82;1.52;;;;;;;14.55;98.33;98947.13;5040019;28;20067;-92
2023/11/23 09:59:51;;;;;;;4.13;1.48;;;;;;;13.62;97.21;98828.63;5039042;28;20048;-92
2023/11/23 10:02:20;;;;;;;7.38;1.80;;;;;;;13.95;96.32;98798.84;5040755;28;20561;-94
2023/11/23 10:04:49;;;;;;;3.58;1.63;;;;;;;14.14;96.23;98876.53;5039933;28;20049;-94
2023/11/23 10:07:16;;;;;;;5.28;1.33;;;;;;;13.56;95.08;98796.81;5040226;28;20075;-94
2023/11/23 10:09:42;;;;;;;5.22;1.70;;;;;;;13.72;99.04;98875.44;5043297;28;20071;-94
2023/11/23 10:12:08;;;;;;;6.85;1.63;;;;;;;13.38;96.65;98795.72;5038265;28;20045;-94
2023/11/23 10:14:34;;;;;;;4.03;1.70;;;;;;;14.35;100.00;98918.44;5038023;28;20029;-92
2023/11/23 10:17:02;;;;;;;3.17;1.70;;;;;;;13.87;97.21;98838.38;5038707;28;20037;-93
2023/11/23 10:19:30;;;;;;;5.72;1.95;;;;;;;13.97;99.41;98939.53;5036888;28;20536;-93
2023/11/23 10:21:59;;;;;;;5.80;1.85;;;;;;;13.44;99.38;98773.22;5037846;28;20481;-94
2023/11/23 10:24:26;;;;;;;4.38;1.88;;;;;;;13.04;99.09;98764.91;5038247;28;20042;-93
2023/11/23 10:26:55;;;;;;;3.45;1.77;;;;;;;13.61;100.00;98887.47;5039123;28;20498;-91
2023/11/23 10:29:26;;;;;;;3.45;1.52;;;;;;;13.51;98.11;98836.16;5036056;28;20041;-91
2023/11/23 10:31:55;;;;;;;2.60;1.45;;;;;;;13.95;96.19;98881.72;5036580;28;20044;-94
2023/11/23 10:34:25;;;;;;;4.07;1.45;;;;;;;13.90;99.09;98862.28;5038846;28;20044;-93
2023/11/23 10:36:52;;;;;;;5.88;1.70;;;;;;;14.21;96.26;98896.72;5038300;28;20502;-92
2023/11/23 10:39:23;;;;;;;4.60;1.67;;;;;;;13.67;95.78;98844.50;5039260;28;20032;-94
2023/11/23 10:41:49;;;;;;;3.22;1.45;;;;;;;13.49;96.50;98779.28;5039390;28;20068;-94
2023/11/23 10:44:15;;;;;;;6.20;1.45;;;;;;;13.52;97.72;98771.13;5038258;28;20049;-95
2023/11/23 10:46:47;;;;;;;3.85;1.83;;;;;;;13.66;96.51;98773.25;5035899;28;20094;-94
2023/11/23 10:49:14;;;;;;;4.60;1.67;;;;;;;13.48;94.55;98743.66;5036868;28;20707;-94
2023/11/23 10:51:43;;;;;;;4.18;1.40;;;;;;;13.41;96.22;98752.00;5038988;28;20061;-93
2023/11/23 10:54:09;;;;;;;6.50;1.80;;;;;;;13.76;95.50;98761.28;5043399;28;20072;-94
2023/11/23 10:56:38;;;;;;;4.60;2.03;;;;;;;13.59;94.50;98740.56;5041239;28;20067;-95
2023/11/23 10:59:11;;;;;;;3.63;1.88;;;;;;;14.32;96.62;98872.22;5034887;28;20148;-93
2023/11/23 11:01:39;;;;;;;4.97;1.55;;;;;;;13.28;99.84;98741.78;5032607;28;20406;-93
2023/11/23 11:04:08;;;;;;;3.67;1.50;;;;;;;13.50;99.20;98730.25;5031152;28;20037;-92
2023/11/23 11:06:38;;;;;;;5.10;1.65;;;;;;;13.86;95.46;98770.69;5039057;28;20120;-92
2023/11/23 11:09:16;;;;;;;5.13;1.80;;;;;;;13.67;95.08;98727.78;5039411;28;20041;-95
2023/11/23 11:11:44;;;;;;;3.72;1.60;;;;;;;13.87;95.10;98742.13;5035328;28;20049;-94
2023/11/23 11:14:13;;;;;;;5.90;1.50;;;;;;;13.89;96.72;98796.41;5040524;28;20120;-94
2023/11/23 11:16:39;;;;;;;3.55;1.30;;;;;;;13.97;92.06;98788.97;5058807;28;20060;-93
2023/11/23 11:19:09;;;;;;;2.20;1.40;;;;;;;14.33;96.25;98877.53;5054840;28;20041;-95
2023/11/23 11:21:43;;;;;;;6.07;1.67;;;;;;;13.75;96.49;98752.41;5038418;28;20103;-93
2023/11/23 11:24:24;;;;;;;2.30;1.38;;;;;;;13.75;96.50;98725.66;5029446;28;20040;-94
2023/11/23 11:26:58;;;;;;;5.55;1.85;;;;;;;14.30;94.79;98807.22;5041077;28;20514;-95
2023/11/23 11:29:24;;;;;;;2.50;1.30;;;;;;;13.52;95.67;98725.72;5039089;28;20513;-93
2023/11/23 11:31:52;;;;;;;6.55;1.50;;;;;;;14.13;96.04;98848.88;5038670;28;20052;-91